LFRK/CFR METAR and TAF weather

Enter ICAO airport designator
Station Type Date Time Source
LFRK METAR 2020/02/29 02:00 UTC NOAA

LFRK 290200Z AUTO 19019KT 9999 FEW025 SCT200 BKN230 10/07 Q0996


Station Type Date Time Source
LFRK Decoded METAR 2020/02/29 02:00 UTC NOAA

Caen, France (LFRK) 49-11N 000-27W 67M
Feb 28, 2020 - 09:00 PM EST / 2020.02.29 0200 UTC
Wind: from the S (190 degrees) at 22 MPH (19 KT):0
Visibility: greater than 7 mile(s):0
Sky conditions: mostly cloudy
Temperature: 50 F (10 C)
Dew Point: 44 F (7 C)
Relative Humidity: 81%
Pressure (altimeter): 29.41 in. Hg (0996 hPa)
ob: LFRK 290200Z AUTO 19019KT 9999 FEW025 SCT200 BKN230 10/07 Q0996
cycle: 2

Station Type Date Time Source
LFRK TAF UTC NOAA

Error!

Example: see airport list